createdAt,value
2019-03-08T00:00:13.433Z,75.95
2019-03-08T00:01:13.417Z,75.38
2019-03-08T00:02:13.164Z,74.9
2019-03-08T00:03:13.186Z,74.52
2019-03-08T00:04:13.393Z,74.24
2019-03-08T00:05:13.321Z,74.27
2019-03-08T00:06:13.153Z,74.46
2019-03-08T00:07:13.394Z,74.56
2019-03-08T00:08:13.137Z,74.27
2019-03-08T00:09:13.139Z,73.99
2019-03-08T00:10:13.140Z,73.99
2019-03-08T00:11:13.110Z,74.33
2019-03-08T00:12:13.379Z,73.76
2019-03-08T00:13:13.281Z,74.18
2019-03-08T00:14:13.108Z,73.8
2019-03-08T00:15:13.342Z,74.56
2019-03-08T00:16:13.340Z,74.18
2019-03-08T00:17:13.071Z,74.75
2019-03-08T00:18:13.329Z,74.65
2019-03-08T00:19:13.319Z,75.04
2019-03-08T00:20:13.334Z,74.99
2019-03-08T00:21:13.067Z,75.19
2019-03-08T00:22:13.302Z,75.42
2019-03-08T00:23:13.045Z,75.13
2019-03-08T00:24:13.290Z,75.67
2019-03-08T00:25:13.279Z,75.47
2019-03-08T00:26:13.036Z,76.04
2019-03-08T00:27:13.257Z,75.85
2019-03-08T00:28:13.025Z,75.85
2019-03-08T00:29:13.261Z,76.46
2019-03-08T00:30:13.258Z,76.08
2019-03-08T00:31:12.993Z,76.56
2019-03-08T00:32:13.227Z,76.84
2019-03-08T00:33:13.243Z,76.52
2019-03-08T00:34:13.246Z,77.56
2019-03-08T00:35:12.977Z,77.09
2019-03-08T00:36:13.211Z,77.47
2019-03-08T00:37:13.298Z,77.66
2019-03-08T00:38:13.241Z,78.33
2019-03-08T00:39:13.207Z,77.19
2019-03-08T00:40:12.938Z,76.81
2019-03-08T00:41:13.197Z,77
2019-03-08T00:42:12.930Z,77.09
2019-03-08T00:43:13.176Z,76.81
2019-03-08T00:44:13.166Z,77.09
2019-03-08T00:45:13.312Z,77
2019-03-08T00:46:13.165Z,76.9
2019-03-08T00:47:12.902Z,77.37
2019-03-08T00:48:13.151Z,77.56
2019-03-08T00:49:13.145Z,77.61
2019-03-08T00:50:13.150Z,76.75
2019-03-08T00:51:13.130Z,76.23
2019-03-08T00:52:13.128Z,76.33
2019-03-08T00:53:13.019Z,76.04
2019-03-08T00:54:12.866Z,76.18
2019-03-08T00:55:13.130Z,76.84
2019-03-08T00:56:13.098Z,77.03
2019-03-08T00:57:12.848Z,76.52
2019-03-08T00:58:13.105Z,76.27
2019-03-08T00:59:13.084Z,76.08
2019-03-08T01:00:13.079Z,76.37
2019-03-08T01:01:12.985Z,76.46
2019-03-08T01:02:13.080Z,76.94
2019-03-08T01:03:13.058Z,76.75
2019-03-08T01:04:12.802Z,76.84
2019-03-08T01:05:13.047Z,76.81
2019-03-08T01:06:13.042Z,76.84
2019-03-08T01:07:12.805Z,77.56
2019-03-08T01:08:13.052Z,77.56
2019-03-08T01:09:13.176Z,77.22
2019-03-08T01:10:13.043Z,76.9
2019-03-08T01:11:13.011Z,76.9
2019-03-08T01:12:13.011Z,77.47
2019-03-08T01:13:13.016Z,77.76
2019-03-08T01:14:13.008Z,77.19
2019-03-08T01:15:12.748Z,77.47
2019-03-08T01:16:12.986Z,77.37
2019-03-08T01:17:13.146Z,77.76
2019-03-08T01:18:12.972Z,77.66
2019-03-08T01:19:12.978Z,78.14
2019-03-08T01:20:12.989Z,78.14
2019-03-08T01:21:12.961Z,77.56
2019-03-08T01:22:12.953Z,77.47
2019-03-08T01:23:12.706Z,77.66
2019-03-08T01:24:12.947Z,77.47
2019-03-08T01:25:13.080Z,77.47
2019-03-08T01:26:12.680Z,77.56
2019-03-08T01:27:12.939Z,77.76
2019-03-08T01:28:12.678Z,77.76
2019-03-08T01:29:12.941Z,77.56
2019-03-08T01:30:12.908Z,77.76
2019-03-08T01:31:12.929Z,77.56
2019-03-08T01:32:12.657Z,77.47
2019-03-08T01:33:12.885Z,78.14
2019-03-08T01:34:12.662Z,77.28
2019-03-08T01:35:12.620Z,77.66
2019-03-08T01:36:12.618Z,77.66
2019-03-08T01:37:12.869Z,78.14
2019-03-08T01:38:12.867Z,77.85
2019-03-08T01:39:12.852Z,77.28
2019-03-08T01:40:12.845Z,77.47
2019-03-08T01:41:12.599Z,77.76
2019-03-08T01:42:12.586Z,77.76
2019-03-08T01:43:12.828Z,78.61
2019-03-08T01:44:12.824Z,77.66
2019-03-08T01:45:12.833Z,76.9
2019-03-08T01:46:12.562Z,77.56
2019-03-08T01:47:12.825Z,77.56
2019-03-08T01:48:12.804Z,77.66
2019-03-08T01:49:12.801Z,77.76
2019-03-08T01:50:12.799Z,77.95
2019-03-08T01:51:12.536Z,77.19
2019-03-08T01:52:12.779Z,77.66
2019-03-08T01:53:12.775Z,78.23
2019-03-08T01:54:12.505Z,78.42
2019-03-08T01:55:12.510Z,78.04
2019-03-08T01:56:12.764Z,78.61
2019-03-08T01:57:12.502Z,78.8
2019-03-08T01:58:12.509Z,78.71
2019-03-08T01:59:12.743Z,78.61
2019-03-08T02:00:13.234Z,78.33
2019-03-08T02:01:12.495Z,78.71
2019-03-08T02:02:12.959Z,79.09
2019-03-08T02:03:12.722Z,79.47
2019-03-08T02:04:12.458Z,79.28
2019-03-08T02:05:12.458Z,79.19
2019-03-08T02:06:12.701Z,78.99
2019-03-08T02:07:12.693Z,79.66
2019-03-08T02:08:12.678Z,79.85
2019-03-08T02:09:12.680Z,79.47
2019-03-08T02:10:12.677Z,80.13
2019-03-08T02:11:12.450Z,80.61
2019-03-08T02:12:12.434Z,81.18
2019-03-08T02:13:12.413Z,81.37
2019-03-08T02:14:12.415Z,81.47
2019-03-08T02:15:12.389Z,81.95
2019-03-08T02:16:12.650Z,82.61
2019-03-08T02:17:12.624Z,82.7
2019-03-08T02:18:12.378Z,82.42
2019-03-08T02:19:12.380Z,82.9
2019-03-08T02:20:12.610Z,83.04
2019-03-08T02:21:12.620Z,82.48
2019-03-08T02:22:12.733Z,82.19
2019-03-08T02:23:12.608Z,82.95
2019-03-08T02:24:12.602Z,83.52
2019-03-08T02:25:12.597Z,84.09
2019-03-08T02:26:12.579Z,84.19
2019-03-08T02:27:12.377Z,84.19
2019-03-08T02:28:12.309Z,83.9
2019-03-08T02:29:12.550Z,84.28
2019-03-08T02:30:12.543Z,84.85
2019-03-08T02:31:12.537Z,85.14
2019-03-08T02:32:12.283Z,85.42
2019-03-08T02:33:12.539Z,85.33
2019-03-08T02:34:12.519Z,85.42
2019-03-08T02:35:12.524Z,85.9
2019-03-08T02:36:12.503Z,85.99
2019-03-08T02:37:12.488Z,85.9
2019-03-08T02:38:12.489Z,86.66
2019-03-08T02:39:12.496Z,86.38
2019-03-08T02:40:12.227Z,86.85
2019-03-08T02:41:12.507Z,86.85
2019-03-08T02:42:12.464Z,87.71
2019-03-08T02:43:12.470Z,88.28
2019-03-08T02:44:12.455Z,87.99
2019-03-08T02:45:12.449Z,88.09
2019-03-08T02:46:12.430Z,87.99
2019-03-08T02:47:12.431Z,87.99
2019-03-08T02:48:12.420Z,88.75
2019-03-08T02:49:12.418Z,88.94
2019-03-08T02:50:12.418Z,89
2019-03-08T02:51:12.149Z,89.09
2019-03-08T02:52:12.396Z,88.52
2019-03-08T02:53:12.395Z,88.8
2019-03-08T02:54:12.376Z,89.66
2019-03-08T02:55:12.374Z,89.75
2019-03-08T02:56:12.367Z,89.37
2019-03-08T02:57:12.362Z,89.09
2019-03-08T02:58:12.126Z,89.18
2019-03-08T02:59:12.101Z,88.9
2019-03-08T03:00:12.356Z,89.09
2019-03-08T03:01:12.099Z,89.18
2019-03-08T03:02:12.555Z,88.8
2019-03-08T03:03:12.313Z,88.8
2019-03-08T03:04:12.317Z,89
2019-03-08T03:05:12.303Z,89.37
2019-03-08T03:06:12.044Z,89.09
2019-03-08T03:07:12.290Z,88.71
2019-03-08T03:08:12.293Z,88.23
2019-03-08T03:09:12.277Z,87.95
2019-03-08T03:10:12.425Z,87.85
2019-03-08T03:11:12.256Z,87.38
2019-03-08T03:12:12.005Z,87.66
2019-03-08T03:13:12.005Z,88.13
2019-03-08T03:14:11.985Z,87.95
2019-03-08T03:15:11.984Z,88.13
2019-03-08T03:16:12.218Z,87.95
2019-03-08T03:17:12.229Z,87.85
2019-03-08T03:18:12.679Z,88.13
2019-03-08T03:19:11.977Z,88.52
2019-03-08T03:20:12.218Z,88.71
2019-03-08T03:21:12.184Z,88.71
2019-03-08T03:22:12.186Z,88.33
2019-03-08T03:23:12.191Z,88.9
2019-03-08T03:24:12.165Z,89.28
2019-03-08T03:25:12.159Z,88.42
2019-03-08T03:26:12.362Z,87.95
2019-03-08T03:27:12.140Z,87.66
2019-03-08T03:28:12.137Z,87.66
2019-03-08T03:29:11.881Z,87.85
2019-03-08T03:30:12.126Z,87.57
2019-03-08T03:31:12.128Z,87.76
2019-03-08T03:32:12.118Z,87.76
2019-03-08T03:33:12.113Z,87.66
2019-03-08T03:34:12.305Z,88.13
2019-03-08T03:35:12.087Z,88.04
2019-03-08T03:36:11.845Z,89.85
2019-03-08T03:37:12.075Z,90.8
2019-03-08T03:38:11.841Z,91.37
2019-03-08T03:39:11.810Z,91.75
2019-03-08T03:40:11.804Z,91.75
2019-03-08T03:41:11.799Z,92.22
2019-03-08T03:42:12.283Z,93.27
2019-03-08T03:43:12.048Z,93.94
2019-03-08T03:44:12.034Z,94.03
2019-03-08T03:45:12.020Z,94.08
2019-03-08T03:46:11.770Z,94.65
2019-03-08T03:47:12.015Z,95.41
2019-03-08T03:48:12.006Z,95.6
2019-03-08T03:49:11.995Z,95.6
2019-03-08T03:50:12.248Z,96.65
2019-03-08T03:51:11.735Z,96.45
2019-03-08T03:52:11.966Z,96.36
2019-03-08T03:53:11.965Z,97.03
2019-03-08T03:54:11.955Z,97.17
2019-03-08T03:55:11.963Z,97.12
2019-03-08T03:56:11.963Z,96.74
2019-03-08T03:57:11.684Z,97.08
2019-03-08T03:58:12.948Z,97.27
2019-03-08T03:59:11.920Z,97.03
2019-03-08T04:00:11.916Z,97.31
2019-03-08T04:01:11.908Z,97.31
2019-03-08T04:02:11.915Z,96.84
2019-03-08T04:03:11.647Z,96.84
2019-03-08T04:04:11.895Z,97.12
2019-03-08T04:05:11.889Z,97.41
2019-03-08T04:06:11.778Z,97.41
2019-03-08T04:07:11.622Z,97.97
2019-03-08T04:08:11.610Z,97.97
2019-03-08T04:09:12.660Z,97.78
2019-03-08T04:10:11.611Z,97.6
2019-03-08T04:11:11.873Z,97.97
2019-03-08T04:12:11.599Z,97.88
2019-03-08T04:13:11.823Z,97.97
2019-03-08T04:14:11.928Z,97.78
2019-03-08T04:15:11.566Z,98.26
2019-03-08T04:16:11.557Z,98.26
2019-03-08T04:17:11.798Z,98.83
2019-03-08T04:18:11.785Z,98.64
2019-03-08T04:19:11.532Z,98.36
2019-03-08T04:20:11.773Z,98.64
2019-03-08T04:21:11.771Z,98.83
2019-03-08T04:22:11.978Z,98.83
2019-03-08T04:23:11.761Z,99.11
2019-03-08T04:24:11.762Z,98.83
2019-03-08T04:25:11.490Z,98.74
2019-03-08T04:26:11.484Z,98.83
2019-03-08T04:27:11.729Z,99.11
2019-03-08T04:28:11.478Z,98.93
2019-03-08T04:29:11.728Z,99.59
2019-03-08T04:30:11.933Z,99.99
2019-03-08T04:31:11.460Z,99.59
2019-03-08T04:32:11.437Z,99.99
2019-03-08T04:33:11.676Z,99.99
2019-03-08T04:34:11.422Z,99.99
2019-03-08T04:35:11.446Z,99.99
2019-03-08T04:36:11.667Z,99.99
2019-03-08T04:37:11.648Z,99.99
2019-03-08T04:38:11.922Z,99.99
2019-03-08T04:39:12.446Z,99.99
2019-03-08T04:40:11.628Z,99.99
2019-03-08T04:41:11.618Z,99.99
2019-03-08T04:42:11.607Z,99.99
2019-03-08T04:43:11.613Z,99.99
2019-03-08T04:44:11.603Z,99.99
2019-03-08T04:45:11.341Z,99.99
2019-03-08T04:46:11.623Z,99.99
2019-03-08T04:47:11.594Z,99.59
2019-03-08T04:48:11.323Z,99.21
2019-03-08T04:49:11.313Z,98.93
2019-03-08T04:50:11.552Z,99.59
2019-03-08T04:51:11.303Z,98.93
2019-03-08T04:52:11.290Z,98.64
2019-03-08T04:53:11.533Z,99.21
2019-03-08T04:54:11.858Z,99.3
2019-03-08T04:55:11.273Z,99.11
2019-03-08T04:56:11.269Z,99.99
2019-03-08T04:57:11.507Z,99.97
2019-03-08T04:58:11.521Z,99.4
2019-03-08T04:59:11.244Z,99.4
2019-03-08T05:00:11.501Z,99.5
2019-03-08T05:01:11.238Z,99.4
2019-03-08T05:02:11.793Z,98.93
2019-03-08T05:03:11.243Z,99.99
2019-03-08T05:04:11.481Z,99.99
2019-03-08T05:05:11.481Z,99.4
2019-03-08T05:06:11.207Z,99.99
2019-03-08T05:07:11.474Z,99.99
2019-03-08T05:08:11.420Z,99.99
2019-03-08T05:09:11.168Z,99.26
2019-03-08T05:10:11.447Z,98.69
2019-03-08T05:11:11.408Z,98.69
2019-03-08T05:12:11.170Z,98.88
2019-03-08T05:13:11.393Z,98.59
2019-03-08T05:14:11.130Z,98.59
2019-03-08T05:15:11.371Z,99.26
2019-03-08T05:16:11.374Z,99.73
2019-03-08T05:17:11.357Z,99.73
2019-03-08T05:18:11.131Z,99.99
2019-03-08T05:19:11.380Z,99.99
2019-03-08T05:20:11.094Z,99.26
2019-03-08T05:21:11.077Z,99.59
2019-03-08T05:22:11.315Z,99.07
2019-03-08T05:23:11.088Z,98.64
2019-03-08T05:24:11.296Z,97.64
2019-03-08T05:25:11.051Z,97.55
2019-03-08T05:26:11.033Z,97.45
2019-03-08T05:27:11.284Z,97.83
2019-03-08T05:28:11.276Z,98.31
2019-03-08T05:29:11.015Z,98.4
2019-03-08T05:30:11.255Z,99.07
2019-03-08T05:31:11.248Z,99.83
2019-03-08T05:32:11.246Z,99.64
2019-03-08T05:33:11.229Z,99.99
2019-03-08T05:34:10.984Z,99.99
2019-03-08T05:35:11.219Z,99.99
2019-03-08T05:36:11.211Z,99.99
2019-03-08T05:37:11.199Z,99.99
2019-03-08T05:38:10.943Z,99.99
2019-03-08T05:39:11.195Z,99.99
2019-03-08T05:40:11.194Z,99.99
2019-03-08T05:41:10.921Z,99.99
2019-03-08T05:42:10.920Z,99.99
2019-03-08T05:43:11.159Z,99.99
2019-03-08T05:44:11.144Z,99.99
2019-03-08T05:45:10.917Z,99.99
2019-03-08T05:46:11.141Z,99.99
2019-03-08T05:47:11.131Z,99.99
2019-03-08T05:48:11.125Z,99.99
2019-03-08T05:49:11.132Z,99.99
2019-03-08T05:50:11.112Z,99.99
2019-03-08T05:51:10.859Z,99.99
2019-03-08T05:52:11.131Z,99.99
2019-03-08T05:53:11.081Z,99.99
2019-03-08T05:54:11.083Z,99.99
2019-03-08T05:55:10.863Z,99.99
2019-03-08T05:56:11.072Z,99.99
2019-03-08T05:57:11.035Z,99.99
2019-03-08T05:58:11.057Z,99.99
2019-03-08T05:59:11.038Z,99.99
2019-03-08T06:00:10.793Z,99.99
2019-03-08T06:01:11.022Z,99.99
2019-03-08T06:02:11.017Z,99.99
2019-03-08T06:03:10.754Z,99.99
2019-03-08T06:04:11.001Z,99.99
2019-03-08T06:05:11.247Z,99.99
2019-03-08T06:06:10.982Z,99.99
2019-03-08T06:07:10.989Z,99.99
2019-03-08T06:08:10.968Z,99.99
2019-03-08T06:09:10.958Z,99.99
2019-03-08T06:10:10.945Z,99.99
2019-03-08T06:11:10.944Z,99.99
2019-03-08T06:12:10.694Z,99.99
2019-03-08T06:13:11.241Z,99.99
2019-03-08T06:14:10.688Z,99.99
2019-03-08T06:15:10.931Z,99.99
2019-03-08T06:16:10.909Z,99.99
2019-03-08T06:17:10.903Z,99.99
2019-03-08T06:18:10.914Z,99.99
2019-03-08T06:19:10.638Z,99.99
2019-03-08T06:20:10.879Z,99.99
2019-03-08T06:21:10.868Z,99.99
2019-03-08T06:22:10.607Z,99.99
2019-03-08T06:23:10.601Z,99.99
2019-03-08T06:24:10.851Z,99.99
2019-03-08T06:25:10.874Z,99.99
2019-03-08T06:26:10.586Z,99.99
2019-03-08T06:27:10.585Z,99.99
2019-03-08T06:28:10.669Z,99.99
2019-03-08T06:29:10.804Z,99.99
2019-03-08T06:30:10.810Z,99.99
2019-03-08T06:31:10.799Z,99.99
2019-03-08T06:32:10.788Z,99.99
2019-03-08T06:33:10.772Z,99.99
2019-03-08T06:34:10.525Z,99.99
2019-03-08T06:35:10.769Z,99.99
2019-03-08T06:36:10.695Z,99.99
2019-03-08T06:37:10.756Z,99.99
2019-03-08T06:38:10.772Z,99.99
2019-03-08T06:39:10.746Z,99.99
2019-03-08T06:40:10.520Z,99.99
2019-03-08T06:41:10.480Z,99.99
2019-03-08T06:42:10.713Z,99.99
2019-03-08T06:43:10.454Z,99.99
2019-03-08T06:44:10.947Z,99.99
2019-03-08T06:45:10.706Z,99.99
2019-03-08T06:46:10.692Z,99.99
2019-03-08T06:47:10.437Z,99.99
2019-03-08T06:48:10.434Z,99.99
2019-03-08T06:49:10.669Z,99.99
2019-03-08T06:50:10.668Z,99.99
2019-03-08T06:51:10.652Z,99.45
2019-03-08T06:52:10.624Z,99.07
2019-03-08T06:53:10.384Z,99.74
2019-03-08T06:54:10.635Z,98.88
2019-03-08T06:55:10.379Z,98.69
2019-03-08T06:56:10.618Z,97.74
2019-03-08T06:57:10.373Z,97.55
2019-03-08T06:58:10.375Z,97.08
2019-03-08T06:59:10.368Z,97.93
2019-03-08T07:00:10.820Z,96.69
2019-03-08T07:01:10.589Z,96.6
2019-03-08T07:02:10.581Z,97.74
2019-03-08T07:03:10.579Z,97.93
2019-03-08T07:04:10.315Z,98.5
2019-03-08T07:05:10.558Z,97.93
2019-03-08T07:06:10.546Z,98.31
2019-03-08T07:07:10.304Z,98.12
2019-03-08T07:08:10.309Z,97.74
2019-03-08T07:09:10.530Z,97.93
2019-03-08T07:10:10.533Z,98.22
2019-03-08T07:11:10.518Z,98.79
2019-03-08T07:12:10.275Z,99.26
2019-03-08T07:13:10.510Z,98.12
2019-03-08T07:14:10.257Z,99.07
2019-03-08T07:15:10.372Z,98.88
2019-03-08T07:16:15.814Z,98.12
2019-03-08T07:17:10.481Z,97.27
2019-03-08T07:18:15.274Z,97.64
2019-03-08T07:19:10.493Z,97.27
2019-03-08T07:20:10.282Z,98.31
2019-03-08T07:21:10.450Z,98.03
2019-03-08T07:22:10.456Z,99.07
2019-03-08T07:23:11.159Z,98.88
2019-03-08T07:24:10.457Z,98.69
2019-03-08T07:25:10.199Z,98.69
2019-03-08T07:26:10.195Z,98.31
2019-03-08T07:27:10.449Z,97.17
2019-03-08T07:28:10.417Z,97.64
2019-03-08T07:29:10.159Z,97.5
2019-03-08T07:30:10.402Z,97.36
2019-03-08T07:31:10.357Z,97.45
2019-03-08T07:32:10.385Z,98.12
2019-03-08T07:33:10.179Z,97.22
2019-03-08T07:34:11.074Z,97.08
2019-03-08T07:35:10.132Z,96.6
2019-03-08T07:36:10.363Z,96.08
2019-03-08T07:37:10.112Z,94.93
2019-03-08T07:38:10.357Z,95.12
2019-03-08T07:39:10.563Z,95.7
2019-03-08T07:40:10.356Z,95.98
2019-03-08T07:41:10.100Z,95.79
2019-03-08T07:42:10.335Z,93.74
2019-03-08T07:43:10.335Z,89.13
2019-03-08T07:44:10.331Z,86.36
2019-03-08T07:45:10.322Z,82.41
2019-03-08T07:46:10.317Z,78.35
2019-03-08T07:47:10.507Z,77.53
2019-03-08T07:48:10.052Z,75.57
2019-03-08T07:49:10.050Z,72.42
2019-03-08T07:50:10.298Z,72.55
2019-03-08T07:51:10.095Z,69.34
2019-03-08T07:52:10.057Z,67.55
2019-03-08T07:53:10.056Z,64.18
2019-03-08T07:54:10.038Z,61.88
2019-03-08T07:55:10.503Z,61.88
2019-03-08T07:56:10.026Z,61.34
2019-03-08T07:57:10.044Z,59.27
2019-03-08T07:58:10.280Z,56.99
2019-03-08T07:59:10.030Z,57.09
2019-03-08T08:00:10.278Z,58.4
2019-03-08T08:01:10.282Z,60.48
2019-03-08T08:02:10.028Z,62.81
2019-03-08T08:03:10.407Z,65.8
2019-03-08T08:04:10.298Z,68.16
2019-03-08T08:05:10.319Z,70.22
2019-03-08T08:06:10.271Z,71.91
2019-03-08T08:07:10.042Z,73.91
2019-03-08T08:08:10.305Z,74.54
2019-03-08T08:09:10.024Z,75.2
2019-03-08T08:10:10.280Z,75.78
2019-03-08T08:11:10.078Z,77.01
2019-03-08T08:12:10.259Z,77.11
2019-03-08T08:13:10.261Z,75.49
2019-03-08T08:14:10.261Z,73.14
2019-03-08T08:15:10.245Z,72.48
2019-03-08T08:16:10.261Z,73.05
2019-03-08T08:17:10.262Z,73.81
2019-03-08T08:18:10.317Z,75.3
2019-03-08T08:19:09.993Z,76.35
2019-03-08T08:20:18.662Z,75.11
2019-03-08T08:21:10.237Z,75.3
2019-03-08T08:22:12.127Z,76.5
2019-03-08T08:23:10.228Z,76.79
2019-03-08T08:24:09.982Z,77.45
2019-03-08T08:25:10.236Z,76.5
2019-03-08T08:26:10.237Z,76.4
2019-03-08T08:27:09.973Z,75.49
2019-03-08T08:28:10.346Z,76.03
2019-03-08T08:29:09.972Z,76.98
2019-03-08T08:30:10.212Z,76.98
2019-03-08T08:31:10.208Z,76.31
2019-03-08T08:32:10.214Z,76.21
2019-03-08T08:33:10.192Z,76.31
2019-03-08T08:34:10.192Z,76.69
2019-03-08T08:35:10.211Z,77.07
2019-03-08T08:36:10.190Z,77.55
2019-03-08T08:37:10.188Z,77.17
2019-03-08T08:38:10.201Z,76.79
2019-03-08T08:39:10.174Z,76.69
2019-03-08T08:40:09.929Z,76.69
2019-03-08T08:41:10.172Z,76.5
2019-03-08T08:42:09.923Z,76.21
2019-03-08T08:43:10.161Z,77.17
2019-03-08T08:44:10.179Z,76.5
2019-03-08T08:45:10.172Z,76.98
2019-03-08T08:46:10.158Z,76.88
2019-03-08T08:47:09.901Z,76.79
2019-03-08T08:48:10.149Z,75.74
2019-03-08T08:49:09.887Z,75.93
2019-03-08T08:50:10.155Z,76.4
2019-03-08T08:51:09.897Z,76.79
2019-03-08T08:52:09.884Z,76.21
2019-03-08T08:53:10.121Z,76.21
2019-03-08T08:54:10.130Z,75.45
2019-03-08T08:55:10.110Z,75.2
2019-03-08T08:56:10.104Z,75.11
2019-03-08T08:57:10.107Z,74.92
2019-03-08T08:58:10.107Z,74.35
2019-03-08T08:59:09.852Z,74.25
2019-03-08T09:00:10.101Z,73.96
2019-03-08T09:01:10.111Z,76.06
2019-03-08T09:02:10.087Z,76.06
2019-03-08T09:03:10.096Z,74.25
2019-03-08T09:04:10.098Z,73.11
2019-03-08T09:05:10.079Z,72.92
2019-03-08T09:06:09.834Z,72.72
2019-03-08T09:07:10.062Z,73.01
2019-03-08T09:08:10.065Z,73.01
2019-03-08T09:09:09.816Z,72
2019-03-08T09:10:10.083Z,71.62
2019-03-08T09:11:09.812Z,71.33
2019-03-08T09:12:10.065Z,70.38
2019-03-08T09:13:10.052Z,70.09
2019-03-08T09:14:10.075Z,70.19
2019-03-08T09:15:10.054Z,70.92
2019-03-08T09:16:10.048Z,70.82
2019-03-08T09:17:10.047Z,69.29
2019-03-08T09:18:10.024Z,70.06
2019-03-08T09:19:10.032Z,70.82
2019-03-08T09:20:09.782Z,71.11
2019-03-08T09:21:10.035Z,71.87
2019-03-08T09:22:10.007Z,70.92
2019-03-08T09:23:10.004Z,70.34
2019-03-08T09:24:10.001Z,70.53
2019-03-08T09:25:10.000Z,71.96
2019-03-08T09:26:10.796Z,71.48
2019-03-08T09:27:09.998Z,71.96
2019-03-08T09:28:10.005Z,71.68
2019-03-08T09:29:10.004Z,71.2
2019-03-08T09:30:09.996Z,70.53
2019-03-08T09:31:09.985Z,70.63
2019-03-08T09:32:09.986Z,70.34
2019-03-08T09:33:10.000Z,69.96
2019-03-08T09:34:09.985Z,69.23
2019-03-08T09:35:09.995Z,69.87
2019-03-08T09:36:09.984Z,69.68
2019-03-08T09:37:09.731Z,68.38
2019-03-08T09:38:09.961Z,67.86
2019-03-08T09:39:09.961Z,67.77
2019-03-08T09:40:09.958Z,68.24
2019-03-08T09:41:09.948Z,69.1
2019-03-08T09:42:09.954Z,69.48
2019-03-08T09:43:09.942Z,68.82
2019-03-08T09:44:09.949Z,68.57
2019-03-08T09:45:09.692Z,68.28
2019-03-08T09:46:09.931Z,67.61
2019-03-08T09:47:09.678Z,67.52
2019-03-08T09:48:09.935Z,66.47
2019-03-08T09:49:09.921Z,66.66
2019-03-08T09:50:09.956Z,67.33
2019-03-08T09:51:09.947Z,67.61
2019-03-08T09:52:09.664Z,66.98
2019-03-08T09:53:09.906Z,66.69
2019-03-08T09:54:09.905Z,67.65
2019-03-08T09:55:09.783Z,68.12
2019-03-08T09:56:09.897Z,66.78
2019-03-08T09:57:09.648Z,65.74
2019-03-08T09:58:09.645Z,65.83
2019-03-08T09:59:09.890Z,65.55
2019-03-08T10:00:09.879Z,64.59
2019-03-08T10:01:18.817Z,64.31
2019-03-08T10:02:09.881Z,63.35
2019-03-08T10:03:09.880Z,64.31
2019-03-08T10:04:09.866Z,65.26
2019-03-08T10:05:09.873Z,65.42
2019-03-08T10:06:09.871Z,65.33
2019-03-08T10:07:09.929Z,64.4
2019-03-08T10:08:09.921Z,65.13
2019-03-08T10:09:09.604Z,64.65
2019-03-08T10:10:09.851Z,63.54
2019-03-08T10:11:09.848Z,63.35
2019-03-08T10:12:09.861Z,62.88
2019-03-08T10:13:09.601Z,62.97
2019-03-08T10:14:09.855Z,61.92
2019-03-08T10:15:09.851Z,62.4
2019-03-08T10:16:09.847Z,62.43
2019-03-08T10:17:09.835Z,63.29
2019-03-08T10:18:11.499Z,62.71
2019-03-08T10:19:09.585Z,61.66
2019-03-08T10:20:09.836Z,62.15
2019-03-08T10:21:09.580Z,62.71
2019-03-08T10:22:09.576Z,61.47
2019-03-08T10:23:09.824Z,61.38
2019-03-08T10:24:09.825Z,62.43
2019-03-08T10:25:09.572Z,61.38
2019-03-08T10:26:09.824Z,60.17
2019-03-08T10:27:09.569Z,59.78
2019-03-08T10:28:09.577Z,59.12
2019-03-08T10:29:09.570Z,60.55
2019-03-08T10:30:09.821Z,58.54
2019-03-08T10:31:09.791Z,57.21
2019-03-08T10:32:09.801Z,57.59
2019-03-08T10:33:10.256Z,57.11
2019-03-08T10:34:09.569Z,58.45
2019-03-08T10:35:09.809Z,58.54
2019-03-08T10:36:09.544Z,55.11
2019-03-08T10:37:09.788Z,55.65
2019-03-08T10:38:09.622Z,54.13
2019-03-08T10:39:09.785Z,52.98
2019-03-08T10:40:09.824Z,53.65
2019-03-08T10:41:09.539Z,54.5
2019-03-08T10:42:09.786Z,56.01
2019-03-08T10:43:09.765Z,57.53
2019-03-08T10:44:15.636Z,59.73
2019-03-08T10:45:09.529Z,60.3
2019-03-08T10:46:18.110Z,59.16
2019-03-08T10:47:09.762Z,58.2
2019-03-08T10:48:09.518Z,57.06
2019-03-08T10:49:09.786Z,53.62
2019-03-08T10:50:09.769Z,52.67
2019-03-08T10:51:09.495Z,52.09
2019-03-08T10:52:17.249Z,52.76
2019-03-08T10:53:09.499Z,52.28
2019-03-08T10:54:09.737Z,52.28
2019-03-08T10:55:09.737Z,51.62
2019-03-08T10:56:09.734Z,50.85
2019-03-08T10:57:09.478Z,50.85
2019-03-08T10:58:09.491Z,50.38
2019-03-08T10:59:09.481Z,50.47
2019-03-08T11:00:09.732Z,50.67
2019-03-08T11:01:09.470Z,51.52
2019-03-08T11:02:09.717Z,51.33
2019-03-08T11:03:09.718Z,50.85
2019-03-08T11:04:09.463Z,51.71
2019-03-08T11:05:09.712Z,52
2019-03-08T11:06:09.705Z,52.09
2019-03-08T11:07:09.711Z,51.71
2019-03-08T11:08:11.707Z,51.52
2019-03-08T11:09:09.692Z,50.85
2019-03-08T11:10:09.691Z,50.47
2019-03-08T11:11:09.433Z,50.69
2019-03-08T11:12:09.429Z,49.73
2019-03-08T11:13:09.428Z,49.83
2019-03-08T11:14:09.434Z,49.16
2019-03-08T11:15:09.678Z,48.3
2019-03-08T11:16:09.675Z,48.11
2019-03-08T11:17:09.691Z,48.11
2019-03-08T11:18:09.663Z,48.11
2019-03-08T11:19:11.461Z,48.39
2019-03-08T11:20:09.442Z,48.02
2019-03-08T11:21:09.664Z,48.04
2019-03-08T11:22:09.424Z,47.85
2019-03-08T11:23:09.655Z,47.08
2019-03-08T11:24:09.418Z,46.7
2019-03-08T11:25:10.792Z,46.06
2019-03-08T11:26:09.651Z,47.37
2019-03-08T11:27:09.677Z,46.42
2019-03-08T11:28:09.401Z,46.44
2019-03-08T11:29:09.651Z,46.42
2019-03-08T11:30:09.647Z,47.01
2019-03-08T11:31:09.633Z,46.63
2019-03-08T11:32:09.875Z,47.11
2019-03-08T11:33:09.629Z,46.63
2019-03-08T11:34:09.635Z,45.96
2019-03-08T11:35:09.628Z,47.3
2019-03-08T11:36:09.380Z,46.53
2019-03-08T11:37:09.377Z,46.44
2019-03-08T11:38:09.637Z,46.17
2019-03-08T11:39:09.619Z,46.37
2019-03-08T11:40:09.888Z,45.7
2019-03-08T11:41:09.626Z,45.79
2019-03-08T11:42:09.619Z,45.41
2019-03-08T11:43:09.625Z,45.7
2019-03-08T11:44:09.624Z,45.41
2019-03-08T11:45:09.624Z,45.6
2019-03-08T11:46:09.353Z,45.58
2019-03-08T11:47:09.622Z,45.87
2019-03-08T11:48:09.853Z,45.01
2019-03-08T11:49:09.622Z,45.87
2019-03-08T11:50:09.624Z,45.39
2019-03-08T11:51:09.351Z,46.25
2019-03-08T11:52:09.606Z,46.15
2019-03-08T11:53:09.343Z,46.61
2019-03-08T11:54:09.343Z,46.42
2019-03-08T11:55:09.589Z,46.42
2019-03-08T11:56:09.784Z,47.47
2019-03-08T11:57:09.356Z,47.27
2019-03-08T11:58:09.582Z,47.56
2019-03-08T11:59:09.336Z,46.51
2019-03-08T12:00:09.576Z,46.8
2019-03-08T12:01:09.575Z,47.27
2019-03-08T12:02:09.601Z,47.66
2019-03-08T12:03:09.566Z,47.27
2019-03-08T12:04:09.793Z,47.27
2019-03-08T12:05:09.563Z,47.47
2019-03-08T12:06:09.561Z,47.66
2019-03-08T12:07:09.324Z,47.66
2019-03-08T12:08:09.577Z,47.37
2019-03-08T12:09:09.303Z,48.04
2019-03-08T12:10:09.562Z,47.94
2019-03-08T12:11:09.560Z,47.37
2019-03-08T12:12:09.838Z,47.49
2019-03-08T12:13:09.289Z,46.63
2019-03-08T12:14:09.544Z,45.96
2019-03-08T12:15:09.549Z,46.25
2019-03-08T12:16:09.297Z,46.44
2019-03-08T12:17:09.540Z,47.37
2019-03-08T12:18:09.528Z,47.66
2019-03-08T12:19:09.529Z,47.47
2019-03-08T12:20:09.736Z,47.37
2019-03-08T12:21:09.515Z,47.2
2019-03-08T12:22:09.272Z,47.2
2019-03-08T12:23:09.523Z,47.27
2019-03-08T12:24:09.523Z,48.23
2019-03-08T12:25:09.274Z,48.23
2019-03-08T12:26:09.258Z,47.49
2019-03-08T12:27:09.266Z,47.3
2019-03-08T12:28:09.447Z,47.49
2019-03-08T12:29:09.512Z,46.44
2019-03-08T12:30:09.505Z,46.44
2019-03-08T12:31:09.254Z,46.75
2019-03-08T12:32:09.499Z,45.51
2019-03-08T12:33:09.503Z,46.17
2019-03-08T12:34:09.499Z,46.66
2019-03-08T12:35:09.242Z,45.87
2019-03-08T12:36:09.407Z,45.7
2019-03-08T12:37:09.500Z,46.72
2019-03-08T12:38:09.483Z,46.06
2019-03-08T12:39:09.248Z,46.44
2019-03-08T12:40:09.237Z,46.44
2019-03-08T12:41:09.242Z,46.25
2019-03-08T12:42:09.490Z,46.44
2019-03-08T12:43:10.828Z,46.32
2019-03-08T12:44:09.615Z,46.7
2019-03-08T12:45:09.474Z,47.75
2019-03-08T12:46:09.463Z,47.82
2019-03-08T12:47:09.466Z,48.42
2019-03-08T12:48:09.477Z,48.8
2019-03-08T12:49:09.224Z,48.8
2019-03-08T12:50:09.496Z,48.9
2019-03-08T12:51:09.215Z,48.61
2019-03-08T12:52:09.463Z,49.57
2019-03-08T12:53:09.449Z,49.09
2019-03-08T12:54:09.451Z,48.13
2019-03-08T12:55:09.207Z,48.33